createdAt,value
2018-07-26T00:02:21.717Z,83.00
2018-07-26T00:05:02.597Z,83.00
2018-07-26T00:07:43.108Z,83.00
2018-07-26T00:10:24.264Z,82.70
2018-07-26T00:13:11.274Z,82.70
2018-07-26T00:15:51.633Z,83.00
2018-07-26T00:18:32.470Z,83.20
2018-07-26T00:21:13.017Z,83.40
2018-07-26T00:23:53.361Z,83.90
2018-07-26T00:26:33.821Z,84.20
2018-07-26T00:29:14.402Z,84.50
2018-07-26T00:31:54.849Z,84.80
2018-07-26T00:34:35.546Z,84.70
2018-07-26T00:37:16.558Z,84.70
2018-07-26T00:39:57.221Z,85.30
2018-07-26T00:42:37.897Z,85.30
2018-07-26T00:45:18.750Z,85.00
2018-07-26T00:47:59.520Z,84.90
2018-07-26T00:50:40.226Z,85.10
2018-07-26T00:53:20.909Z,86.50
2018-07-26T00:56:01.938Z,86.30
2018-07-26T00:58:44.393Z,86.60
2018-07-26T01:01:25.267Z,87.10
2018-07-26T01:04:05.852Z,87.00
2018-07-26T01:06:46.610Z,86.90
2018-07-26T01:09:27.851Z,87.00
2018-07-26T01:12:08.554Z,87.50
2018-07-26T01:14:49.894Z,87.50
2018-07-26T01:17:30.235Z,87.60
2018-07-26T01:20:10.767Z,87.70
2018-07-26T01:22:51.447Z,88.10
2018-07-26T01:25:32.570Z,88.40
2018-07-26T01:28:13.911Z,88.40
2018-07-26T01:30:54.704Z,89.00
2018-07-26T01:33:35.146Z,89.70
2018-07-26T01:36:15.525Z,89.50
2018-07-26T01:38:56.705Z,89.40
2018-07-26T01:41:37.545Z,89.40
2018-07-26T01:44:22.481Z,89.50
2018-07-26T01:47:03.585Z,89.70
2018-07-26T01:49:44.737Z,88.80
2018-07-26T01:52:25.576Z,88.40
2018-07-26T01:55:06.378Z,88.00
2018-07-26T01:57:47.278Z,87.90
2018-07-26T02:00:28.106Z,88.20
2018-07-26T02:03:09.052Z,88.00
2018-07-26T02:05:50.458Z,87.30
2018-07-26T02:08:31.641Z,86.70
2018-07-26T02:11:12.817Z,87.00
2018-07-26T02:13:53.865Z,87.80
2018-07-26T02:16:34.852Z,87.70
2018-07-26T02:19:16.012Z,87.90
2018-07-26T02:21:56.316Z,88.00
2018-07-26T02:24:37.370Z,88.10
2018-07-26T02:27:18.941Z,88.40
2018-07-26T02:29:59.444Z,88.80
2018-07-26T02:32:39.908Z,89.20
2018-07-26T02:35:20.808Z,89.20
2018-07-26T02:38:02.167Z,89.40
2018-07-26T02:40:42.661Z,89.40
2018-07-26T02:43:23.370Z,89.80
2018-07-26T02:46:04.023Z,90.30
2018-07-26T02:48:45.404Z,90.00
2018-07-26T02:51:26.218Z,90.10
2018-07-26T02:54:06.686Z,90.00
2018-07-26T02:56:47.582Z,89.80
2018-07-26T02:59:28.834Z,90.00
2018-07-26T03:02:09.653Z,89.00
2018-07-26T03:04:50.347Z,88.80
2018-07-26T03:07:31.446Z,89.00
2018-07-26T03:10:12.253Z,89.30
2018-07-26T03:12:53.142Z,89.30
2018-07-26T03:15:33.607Z,89.50
2018-07-26T03:18:14.284Z,90.00
2018-07-26T03:20:55.115Z,90.40
2018-07-26T03:23:35.989Z,90.50
2018-07-26T03:26:16.872Z,90.60
2018-07-26T03:28:57.884Z,90.90
2018-07-26T03:31:38.851Z,91.10
2018-07-26T03:34:19.626Z,90.40
2018-07-26T03:37:00.484Z,90.10
2018-07-26T03:39:41.164Z,90.10
2018-07-26T03:42:21.936Z,90.10
2018-07-26T03:45:03.484Z,90.10
2018-07-26T03:47:44.002Z,90.00
2018-07-26T03:50:24.873Z,89.80
2018-07-26T03:53:05.248Z,90.00
2018-07-26T03:55:46.278Z,89.80
2018-07-26T03:58:26.818Z,89.70
2018-07-26T04:01:08.814Z,90.00
2018-07-26T04:03:49.879Z,90.30
2018-07-26T04:06:30.528Z,90.10
2018-07-26T04:09:14.504Z,90.30
2018-07-26T04:11:55.017Z,90.10
2018-07-26T04:14:35.721Z,89.70
2018-07-26T04:17:16.420Z,89.30
2018-07-26T04:19:57.653Z,89.40
2018-07-26T04:22:38.649Z,89.20
2018-07-26T04:28:00.280Z,89.50
2018-07-26T04:30:41.053Z,89.10
2018-07-26T04:33:21.398Z,88.60
2018-07-26T04:36:02.346Z,89.10
2018-07-26T04:38:42.856Z,88.20
2018-07-26T04:41:23.878Z,87.90
2018-07-26T04:44:05.213Z,87.80
2018-07-26T04:46:45.873Z,87.80
2018-07-26T04:49:26.323Z,87.70
2018-07-26T04:52:07.393Z,87.60
2018-07-26T04:54:48.088Z,87.70
2018-07-26T04:57:29.075Z,87.40
2018-07-26T05:00:09.945Z,87.70
2018-07-26T05:02:51.137Z,87.70
2018-07-26T05:05:31.984Z,86.60
2018-07-26T05:08:12.459Z,86.10
2018-07-26T05:10:53.383Z,85.50
2018-07-26T05:13:34.098Z,84.70
2018-07-26T05:16:15.496Z,84.00
2018-07-26T05:18:56.205Z,83.90
2018-07-26T05:21:36.700Z,84.20
2018-07-26T05:24:17.530Z,83.30
2018-07-26T05:26:58.306Z,83.30
2018-07-26T05:29:39.001Z,80.20
2018-07-26T05:32:19.957Z,78.30
2018-07-26T05:35:00.367Z,76.80
2018-07-26T05:37:41.239Z,77.40
2018-07-26T05:40:22.206Z,77.60
2018-07-26T05:43:02.707Z,77.20
2018-07-26T05:45:45.093Z,79.00
2018-07-26T05:48:25.453Z,79.30
2018-07-26T05:51:06.186Z,78.80
2018-07-26T05:53:47.223Z,78.30
2018-07-26T05:56:28.661Z,78.60
2018-07-26T05:59:09.519Z,78.30
2018-07-26T06:01:49.964Z,79.00
2018-07-26T06:04:31.205Z,78.20
2018-07-26T06:07:11.695Z,77.60
2018-07-26T06:09:52.744Z,77.50
2018-07-26T06:12:33.393Z,77.40
2018-07-26T06:15:14.509Z,77.70
2018-07-26T06:20:36.052Z,78.80
2018-07-26T06:23:16.761Z,79.10
2018-07-26T06:25:57.788Z,78.90
2018-07-26T06:28:38.221Z,78.40
2018-07-26T06:31:18.856Z,78.50
2018-07-26T06:33:59.697Z,78.80
2018-07-26T06:36:40.369Z,79.40
2018-07-26T06:39:20.733Z,78.20
2018-07-26T06:42:01.720Z,77.70
2018-07-26T06:44:42.673Z,77.10
2018-07-26T06:47:23.798Z,77.40
2018-07-26T06:50:05.440Z,76.20
2018-07-26T06:52:45.925Z,76.00
2018-07-26T06:55:26.917Z,74.10
2018-07-26T06:58:07.858Z,70.70
2018-07-26T07:00:49.034Z,68.80
2018-07-26T07:03:30.038Z,70.30
2018-07-26T07:06:10.680Z,70.90
2018-07-26T07:08:51.261Z,71.60
2018-07-26T07:11:32.013Z,72.60
2018-07-26T07:14:13.777Z,72.50
2018-07-26T07:16:54.873Z,72.40
2018-07-26T07:19:35.694Z,72.50
2018-07-26T07:22:16.130Z,71.20
2018-07-26T07:24:57.177Z,71.00
2018-07-26T07:27:38.397Z,71.80
2018-07-26T07:30:19.344Z,72.00
2018-07-26T07:33:00.421Z,71.50
2018-07-26T07:35:41.568Z,70.30
2018-07-26T07:38:22.633Z,69.20
2018-07-26T07:41:03.577Z,68.10
2018-07-26T07:43:44.708Z,66.30
2018-07-26T07:46:25.534Z,66.70
2018-07-26T07:49:06.846Z,65.40
2018-07-26T07:51:47.302Z,65.70
2018-07-26T07:54:28.928Z,65.70
2018-07-26T07:57:09.406Z,63.40
2018-07-26T07:59:50.852Z,62.30
2018-07-26T08:02:31.718Z,59.40
2018-07-26T08:05:12.957Z,52.50
2018-07-26T08:07:53.885Z,47.30
2018-07-26T08:10:34.963Z,44.20
2018-07-26T08:13:15.719Z,40.70
2018-07-26T08:15:56.433Z,37.90
2018-07-26T08:18:37.161Z,37.80
2018-07-26T08:21:17.695Z,36.50
2018-07-26T08:23:58.366Z,35.30
2018-07-26T08:26:39.072Z,36.20
2018-07-26T08:29:20.222Z,36.90
2018-07-26T08:32:01.127Z,35.70
2018-07-26T08:34:41.847Z,34.80
2018-07-26T08:37:22.513Z,35.10
2018-07-26T08:40:03.335Z,34.70
2018-07-26T08:42:44.154Z,34.20
2018-07-26T08:45:24.976Z,33.80
2018-07-26T08:48:05.867Z,33.70
2018-07-26T08:50:46.718Z,33.00
2018-07-26T08:53:27.095Z,32.70
2018-07-26T08:56:07.916Z,33.50
2018-07-26T08:58:48.975Z,33.50
2018-07-26T09:01:29.845Z,31.60
2018-07-26T09:04:10.423Z,33.30
2018-07-26T09:06:51.118Z,31.30
2018-07-26T09:09:31.462Z,30.60
2018-07-26T09:12:12.231Z,31.30
2018-07-26T09:14:52.940Z,29.80
2018-07-26T09:17:33.797Z,30.00
2018-07-26T09:20:14.205Z,28.70
2018-07-26T09:22:55.109Z,28.50
2018-07-26T09:25:35.942Z,27.60
2018-07-26T09:28:16.511Z,27.70
2018-07-26T09:30:57.181Z,27.60
2018-07-26T09:33:38.040Z,26.80
2018-07-26T09:36:19.461Z,26.40
2018-07-26T09:39:00.264Z,25.80
2018-07-26T09:41:41.144Z,25.60
2018-07-26T09:44:21.762Z,26.30
2018-07-26T09:47:02.912Z,28.60
2018-07-26T09:49:43.686Z,30.70
2018-07-26T09:52:24.985Z,32.00
2018-07-26T09:55:05.563Z,30.10
2018-07-26T09:57:46.477Z,28.70
2018-07-26T10:00:32.989Z,30.00
2018-07-26T10:03:13.495Z,32.70
2018-07-26T10:05:54.105Z,34.80
2018-07-26T10:08:35.413Z,35.80
2018-07-26T10:11:16.624Z,35.80
2018-07-26T10:13:58.127Z,31.40
2018-07-26T10:16:39.047Z,28.90
2018-07-26T10:19:19.866Z,27.40
2018-07-26T10:22:00.697Z,26.00
2018-07-26T10:24:41.525Z,27.20
2018-07-26T10:27:22.161Z,29.20
2018-07-26T10:30:04.712Z,28.80
2018-07-26T10:32:45.097Z,27.60
2018-07-26T10:35:26.412Z,27.30
2018-07-26T10:38:07.290Z,25.90
2018-07-26T10:40:47.754Z,25.20
2018-07-26T10:43:28.493Z,24.00
2018-07-26T10:46:09.669Z,24.40
2018-07-26T10:48:50.468Z,24.70
2018-07-26T10:51:31.654Z,24.80
2018-07-26T10:54:12.597Z,24.80
2018-07-26T10:56:53.089Z,24.90
2018-07-26T10:59:33.946Z,24.50
2018-07-26T11:02:14.594Z,23.70
2018-07-26T11:04:55.457Z,23.30
2018-07-26T11:07:36.089Z,23.10
2018-07-26T11:10:16.702Z,23.50
2018-07-26T11:12:57.816Z,25.70
2018-07-26T11:15:38.729Z,25.50
2018-07-26T11:18:19.617Z,24.90
2018-07-26T11:20:59.977Z,23.90
2018-07-26T11:23:40.940Z,23.50
2018-07-26T11:26:21.969Z,23.40
2018-07-26T11:29:02.765Z,26.10
2018-07-26T11:31:43.643Z,28.70
2018-07-26T11:34:24.672Z,29.60
2018-07-26T11:37:05.546Z,29.20
2018-07-26T11:39:46.922Z,28.60
2018-07-26T11:42:27.814Z,26.80
2018-07-26T11:45:09.364Z,26.30
2018-07-26T11:47:50.077Z,24.70
2018-07-26T11:50:30.892Z,25.20
2018-07-26T11:53:11.936Z,24.70
2018-07-26T11:55:52.473Z,24.30
2018-07-26T11:58:33.084Z,24.20
2018-07-26T12:01:14.082Z,24.70
2018-07-26T12:03:54.545Z,25.10
2018-07-26T12:06:35.493Z,23.90
2018-07-26T12:09:16.425Z,24.10
2018-07-26T12:11:57.185Z,23.40
2018-07-26T12:14:38.242Z,23.10
2018-07-26T12:19:59.523Z,24.70
2018-07-26T12:22:40.361Z,24.30
2018-07-26T12:25:21.261Z,24.10
2018-07-26T12:28:02.275Z,22.70
2018-07-26T12:33:23.511Z,22.40
2018-07-26T12:36:04.298Z,22.80
2018-07-26T12:38:45.055Z,23.70
2018-07-26T12:41:25.933Z,24.80
2018-07-26T12:44:06.648Z,24.10
2018-07-26T12:46:47.465Z,23.80
2018-07-26T12:49:28.258Z,23.50
2018-07-26T12:52:09.606Z,24.10
2018-07-26T12:54:50.719Z,25.00
2018-07-26T12:57:32.181Z,25.50
2018-07-26T13:00:13.059Z,25.10
2018-07-26T13:05:33.846Z,26.00
2018-07-26T13:08:14.541Z,26.30
2018-07-26T13:10:55.472Z,26.80
2018-07-26T13:13:36.192Z,29.10
2018-07-26T13:16:17.346Z,30.70
2018-07-26T13:21:38.988Z,33.50
2018-07-26T13:24:20.209Z,33.90
2018-07-26T13:27:00.585Z,31.90
2018-07-26T13:29:41.804Z,31.00
2018-07-26T13:32:23.067Z,30.30
2018-07-26T13:35:04.204Z,30.20
2018-07-26T13:37:45.015Z,28.30
2018-07-26T13:40:26.208Z,28.70
2018-07-26T13:43:06.886Z,27.90
2018-07-26T13:45:47.317Z,27.10
2018-07-26T13:48:29.301Z,27.50
2018-07-26T13:51:10.862Z,27.60
2018-07-26T13:53:51.633Z,29.10
2018-07-26T13:56:32.701Z,30.00
2018-07-26T13:59:13.369Z,31.80
2018-07-26T14:01:53.875Z,32.60
2018-07-26T14:04:34.914Z,32.90
2018-07-26T14:07:16.105Z,32.50
2018-07-26T14:09:56.939Z,31.60
2018-07-26T14:12:38.172Z,30.00
2018-07-26T14:15:19.095Z,28.90
2018-07-26T14:18:00.430Z,28.70
2018-07-26T14:20:41.202Z,28.30
2018-07-26T14:23:27.447Z,29.30
2018-07-26T14:28:51.981Z,28.70
2018-07-26T14:31:32.679Z,29.40
2018-07-26T14:34:13.970Z,28.90
2018-07-26T14:36:54.494Z,28.90
2018-07-26T14:39:35.434Z,28.40
2018-07-26T14:42:15.869Z,28.70
2018-07-26T14:44:56.575Z,30.00
2018-07-26T14:47:38.161Z,30.70
2018-07-26T14:50:19.281Z,31.80
2018-07-26T14:52:59.749Z,32.20
2018-07-26T14:55:40.617Z,32.60
2018-07-26T14:58:21.352Z,32.20
2018-07-26T15:01:01.968Z,30.80
2018-07-26T15:03:43.250Z,29.30
2018-07-26T15:06:24.301Z,28.90
2018-07-26T15:09:07.757Z,29.30
2018-07-26T15:11:48.552Z,28.70
2018-07-26T15:14:29.409Z,28.50
2018-07-26T15:17:10.672Z,28.50
2018-07-26T15:19:51.605Z,29.30
2018-07-26T15:22:32.841Z,28.50
2018-07-26T15:25:16.356Z,28.80
2018-07-26T15:27:57.636Z,29.20
2018-07-26T15:30:38.992Z,29.80
2018-07-26T15:33:19.832Z,30.00
2018-07-26T15:36:00.790Z,30.50
2018-07-26T15:38:42.124Z,30.00
2018-07-26T15:41:24.945Z,29.90
2018-07-26T15:44:06.286Z,29.80
2018-07-26T15:46:47.547Z,29.80
2018-07-26T15:49:28.539Z,30.00
2018-07-26T15:52:09.411Z,29.90
2018-07-26T15:54:51.003Z,30.10
2018-07-26T15:57:32.210Z,30.10
2018-07-26T16:00:13.128Z,30.20
2018-07-26T16:02:54.433Z,29.80
2018-07-26T16:05:35.335Z,30.00
2018-07-26T16:08:15.738Z,29.60
2018-07-26T16:10:56.216Z,29.90
2018-07-26T16:13:36.629Z,30.00
2018-07-26T16:16:17.077Z,30.10
2018-07-26T16:18:58.445Z,29.10
2018-07-26T16:21:39.239Z,30.00
2018-07-26T16:24:19.962Z,30.30
2018-07-26T16:27:01.217Z,31.10
2018-07-26T16:29:42.129Z,30.80
2018-07-26T16:32:22.463Z,30.70
2018-07-26T16:35:02.875Z,30.30
2018-07-26T16:37:43.457Z,31.00
2018-07-26T16:40:24.289Z,30.20
2018-07-26T16:43:05.059Z,30.40
2018-07-26T16:45:45.798Z,30.90
2018-07-26T16:48:26.397Z,30.60
2018-07-26T16:51:06.881Z,30.70
2018-07-26T16:53:47.848Z,31.60
2018-07-26T16:56:28.345Z,31.40
2018-07-26T16:59:09.226Z,32.40
2018-07-26T17:01:49.543Z,32.50
2018-07-26T17:04:30.378Z,31.30
2018-07-26T17:07:11.926Z,30.90
2018-07-26T17:09:53.058Z,31.40
2018-07-26T17:12:34.348Z,31.30
2018-07-26T17:15:15.017Z,31.50
2018-07-26T17:17:56.178Z,31.60
2018-07-26T17:20:37.373Z,32.10
2018-07-26T17:23:18.165Z,33.10
2018-07-26T17:25:59.403Z,33.20
2018-07-26T17:28:40.665Z,33.50
2018-07-26T17:31:21.417Z,33.30
2018-07-26T17:34:02.177Z,33.20
2018-07-26T17:36:42.498Z,33.30
2018-07-26T17:39:23.617Z,33.60
2018-07-26T17:42:05.308Z,34.30
2018-07-26T17:44:45.974Z,34.10
2018-07-26T17:47:27.677Z,34.30
2018-07-26T17:50:10.342Z,34.20
2018-07-26T17:52:51.164Z,34.80
2018-07-26T17:55:32.290Z,34.70
2018-07-26T17:58:13.652Z,34.80
2018-07-26T18:00:54.397Z,35.10
2018-07-26T18:03:35.545Z,35.40
2018-07-26T18:06:15.979Z,35.80
2018-07-26T18:08:56.704Z,35.90
2018-07-26T18:11:37.209Z,36.70
2018-07-26T18:14:18.542Z,36.50
2018-07-26T18:16:59.266Z,36.80
2018-07-26T18:19:40.450Z,37.40
2018-07-26T18:22:21.471Z,37.60
2018-07-26T18:25:02.558Z,37.10
2018-07-26T18:27:43.541Z,36.60
2018-07-26T18:30:24.423Z,37.60
2018-07-26T18:33:05.090Z,38.00
2018-07-26T18:35:45.657Z,38.00
2018-07-26T18:38:26.190Z,38.40
2018-07-26T18:41:07.489Z,38.50
2018-07-26T18:43:48.560Z,38.10
2018-07-26T18:46:29.913Z,38.10
2018-07-26T18:49:11.019Z,38.60
2018-07-26T18:51:52.330Z,39.10
2018-07-26T18:54:34.001Z,39.50
2018-07-26T18:57:14.820Z,39.20
2018-07-26T18:59:56.441Z,39.60
2018-07-26T19:02:37.685Z,39.90
2018-07-26T19:05:18.621Z,40.40
2018-07-26T19:08:01.739Z,40.00
2018-07-26T19:10:43.880Z,40.70
2018-07-26T19:13:24.709Z,41.50
2018-07-26T19:16:06.735Z,41.40
2018-07-26T19:18:47.656Z,42.00
2018-07-26T19:21:28.599Z,42.30
2018-07-26T19:24:09.837Z,42.30
2018-07-26T19:26:51.009Z,42.00
2018-07-26T19:29:31.570Z,42.30
2018-07-26T19:32:12.281Z,41.80
2018-07-26T19:34:53.449Z,42.60
2018-07-26T19:37:34.704Z,42.50
2018-07-26T19:40:16.108Z,43.00
2018-07-26T19:42:56.881Z,43.10
2018-07-26T19:45:37.292Z,44.20
2018-07-26T19:48:18.111Z,43.80
2018-07-26T19:50:58.694Z,43.50
2018-07-26T19:53:39.163Z,44.40
2018-07-26T19:56:20.279Z,44.60
2018-07-26T19:59:01.394Z,44.70
2018-07-26T20:01:42.664Z,45.30
2018-07-26T20:04:23.436Z,46.00
2018-07-26T20:07:04.945Z,45.90
2018-07-26T20:09:45.547Z,45.30
2018-07-26T20:12:26.965Z,46.00
2018-07-26T20:15:08.247Z,46.30
2018-07-26T20:17:48.707Z,47.40
2018-07-26T20:20:29.630Z,47.90
2018-07-26T20:23:11.155Z,48.60
2018-07-26T20:25:52.504Z,48.40
2018-07-26T20:28:32.913Z,49.10
2018-07-26T20:31:13.756Z,50.30
2018-07-26T20:33:58.247Z,49.70
2018-07-26T20:36:42.266Z,50.00
2018-07-26T20:39:23.984Z,50.50
2018-07-26T20:42:05.165Z,50.70
2018-07-26T20:44:50.247Z,51.10
2018-07-26T20:47:33.007Z,51.20
2018-07-26T20:50:16.915Z,51.70
2018-07-26T20:52:59.390Z,51.90
2018-07-26T20:55:44.724Z,52.40
2018-07-26T20:58:26.029Z,51.70
2018-07-26T21:01:12.155Z,52.40
2018-07-26T21:03:54.476Z,53.00
2018-07-26T21:06:39.466Z,53.40
2018-07-26T21:09:21.327Z,53.80
2018-07-26T21:12:09.573Z,54.60
2018-07-26T21:14:50.781Z,54.60
2018-07-26T21:17:31.941Z,55.10
2018-07-26T21:20:12.509Z,55.30
2018-07-26T21:22:52.870Z,55.60
2018-07-26T21:25:34.046Z,55.80
2018-07-26T21:28:15.361Z,55.90
2018-07-26T21:30:56.148Z,56.10
2018-07-26T21:33:36.951Z,56.30
2018-07-26T21:36:17.794Z,56.70
2018-07-26T21:38:58.567Z,56.40
2018-07-26T21:41:39.262Z,56.70
2018-07-26T21:44:20.676Z,56.80
2018-07-26T21:47:01.428Z,57.20
2018-07-26T21:49:42.576Z,57.00
2018-07-26T21:52:23.731Z,57.40
2018-07-26T21:55:04.522Z,57.70
2018-07-26T21:57:45.302Z,57.90
2018-07-26T22:00:37.577Z,58.30
2018-07-26T22:03:18.448Z,58.50
2018-07-26T22:05:59.184Z,58.80
2018-07-26T22:08:40.032Z,59.20
2018-07-26T22:11:21.408Z,58.70
2018-07-26T22:14:02.483Z,59.10
2018-07-26T22:16:43.334Z,59.20
2018-07-26T22:19:24.403Z,59.50
2018-07-26T22:22:04.947Z,59.70
2018-07-26T22:24:45.452Z,60.10
2018-07-26T22:27:26.604Z,60.50
2018-07-26T22:30:07.650Z,61.00
2018-07-26T22:32:48.375Z,61.30
2018-07-26T22:35:29.190Z,61.40
2018-07-26T22:38:10.417Z,61.20
2018-07-26T22:40:51.266Z,60.50
2018-07-26T22:43:32.591Z,60.70
2018-07-26T22:46:13.137Z,62.10
2018-07-26T22:48:53.852Z,61.90
2018-07-26T22:51:34.825Z,62.20
2018-07-26T22:54:15.974Z,62.40
2018-07-26T22:56:56.857Z,63.40
2018-07-26T22:59:37.920Z,63.80
2018-07-26T23:02:18.717Z,62.50
2018-07-26T23:04:59.474Z,62.60
2018-07-26T23:07:40.790Z,60.50
2018-07-26T23:10:21.502Z,60.10
2018-07-26T23:13:02.337Z,60.40
2018-07-26T23:15:43.176Z,59.70
2018-07-26T23:18:25.678Z,60.00
2018-07-26T23:21:06.681Z,59.80
2018-07-26T23:23:47.518Z,59.80
2018-07-26T23:26:27.937Z,60.50
2018-07-26T23:29:08.406Z,60.50
2018-07-26T23:31:49.173Z,60.10
2018-07-26T23:34:29.967Z,60.70
2018-07-26T23:37:10.794Z,62.00
2018-07-26T23:39:53.593Z,61.30
2018-07-26T23:42:34.405Z,61.30
2018-07-26T23:45:15.421Z,61.20
2018-07-26T23:47:56.259Z,60.40
2018-07-26T23:50:36.928Z,60.70
2018-07-26T23:53:18.069Z,60.60
2018-07-26T23:55:59.216Z,60.80
2018-07-26T23:58:40.773Z,61.10
